KEF weather

Keflavik International Airport
Reykjavík, Southern Peninsula, Iceland

Public forecast

Using degrees Celsius for public forecast. Weather courtesy of forecast.io.

Current aviation weather report (METAR) for Keflavik International Airport

Retrieved 2020/03/30 06:00 UTC (4 minutes ago):

BIKF 300600Z 22016KT 9999 OVC038 05/03 Q1039

Aviation forecast (TAF) for Keflavik International Airport

Retrieved 2020/03/30 06:48 UTC (0 seconds ago):

TAF TAF BIKF 300445Z 3006/3106 22020KT 9999 -DZ BKN040 TX06/3012Z TN05/3009Z PROB40 TEMPO 3006/3106 3000 DZ BR BKN007 OVC012